Metar Cercanos

 

LEPA - Palma De Mallorc, Spain
Distance from station: ONO 38km
Actualización: 19/07/2018 11:30
Despejado
Despejado
 Viento del SO
Viento: SO 13 km/h
Temperatura: 30°C
Indice Calor: 31°C
Rocío: 17°C
Humedad: 46%
Barómetro: 1016 hPa
Resumen: Despejado
Visibility: greater than 10 km
2018/07/19 09:30 LEPA 190930Z 23007KT 200V260 CAVOK 30/17 Q1016 NOSIG
LEMH - Mahon/Menorca Is, Spain
Distance from station: ENE 105km
Actualización: 19/07/2018 11:30
Few Clouds
Few Clouds
 Viento del SO
Viento: SO 11 km/h
Temperatura: 29°C
Indice Calor: 29°C
Rocío: 18°C
Humedad: 51%
Barómetro: 1016 hPa
Clouds: Few Clouds
Visibility: 10 km
Cloud details: Few Clouds 610 m
2018/07/19 09:30 LEMH 190930Z 23006KT 190V280 9999 FEW020 29/18 Q1016
 
LEIB - Ibiza/Es Codola, Spain
Distance from station: OSO 165km
Actualización: 19/07/2018 11:30
Despejado
Despejado
 Viento del ENE
Viento: ENE 7 km/h
Temperatura: 27°C
Indice Calor: 29°C
Rocío: 21°C
Humedad: 70%
Barómetro: 1015 hPa
Resumen: Despejado
Visibility: greater than 10 km
2018/07/19 09:30 LEIB 190930Z 07004KT 010V150 CAVOK 27/21 Q1015 NOSIG
LEBL - Barcelona Airpor, Spain
Distance from station: NNO 225km
Actualización: 19/07/2018 11:30
Parcialmente nuboso
Parcialmente nuboso
 Viento del ESE
Viento: ESE 9 km/h
Temperatura: 27°C
Indice Calor: 29°C
Rocío: 21°C
Humedad: 70%
Barómetro: 1016 hPa
Clouds: Parcialmente nuboso
Visibility: 10 km
Cloud details: Parcialmente nuboso 610 m
2018/07/19 09:30 LEBL 190930Z 11005KT 030V150 9999 SCT020 27/21 Q1016 NOSIG
 
LEVC - Valencia (civ/Mi, Spain
Distance from station: NO 188km
Actualización: 19/07/2018 11:30
Few Clouds
Few Clouds
 Viento del ESE
Viento: ESE 9 km/h
Temperatura: 29°C
Indice Calor: 29°C
Rocío: 18°C
Humedad: 51%
Barómetro: 1015 hPa
Clouds: Few Clouds
Visibility: 10 km
Cloud details: Few Clouds 610 m
2018/07/19 09:30 LEVC 190930Z 12005KT 070V170 9999 FEW020 29/18 Q1015 NOSIG
LEGE - Gerona/Costa Bra, Spain
Distance from station: N 276km
Actualización: 19/07/2018 11:30
Despejado
Despejado
 Viento del NE
Viento: NE 4 km/h
Temperatura: 28°C
Indice Calor: 28°C
Rocío: 16°C
Humedad: 48%
Barómetro: 1016 hPa
Resumen: Despejado
Visibility: greater than 10 km
2018/07/19 09:30 LEGE 190930Z 05002KT CAVOK 28/16 Q1016
 
LEAL - Alicante/El Alte, Spain
Distance from station: OSO 344km
Actualización: 19/07/2018 11:30
Few Clouds
Few Clouds
 Viento del ESE
Viento: ESE 9 km/h
Temperatura: 28°C
Indice Calor: 30°C
Rocío: 22°C
Humedad: 70%
Barómetro: 1015 hPa
Clouds: Few Clouds
Visibility: 10 km
Cloud details: Few Clouds 610 m
2018/07/19 09:30 LEAL 190930Z 11005KT 060V160 9999 FEW020 28/22 Q1015 NOSIG
LEAM - Almeria Airport, Spain
Distance from station: SSO 56km
Actualización: 19/07/2018 11:30
Despejado
Despejado
 Viento del SO
Viento: SO 7 km/h
Temperatura: 25°C
Rocío: 19°C
Humedad: 69%
Barómetro: 1015 hPa
Resumen: Despejado
Visibility: greater than 10 km
2018/07/19 09:30 LEAM 190930Z 22004KT 170V260 CAVOK 25/19 Q1015
 
LEZG - Zaragoza (mil/Ci, Spain
Distance from station: NO 431km
Actualización: 19/07/2018 11:30
Despejado
Despejado
 Viento del N
Viento: N 4 km/h
Temperatura: 26°C
Rocío: 16°C
Humedad: 54%
Barómetro: 1016 hPa
Resumen: Despejado
Visibility: greater than 10 km
2018/07/19 09:30 LEZG 190930Z 01002KT CAVOK 26/16 Q1016
LEMD - Madrid/Barajas, Spain
Distance from station: ONO 234km
Actualización: 19/07/2018 11:30
Despejado
Despejado
 Viento del S
Viento: S 4 km/h, Racha: 22 km/h
Temperatura: 27°C
Rocío: 9°C
Humedad: 32%
Barómetro: 1017 hPa
Resumen: Despejado
Visibility: greater than 10 km
2018/07/19 09:30 LEMD 190930Z 19002G12KT CAVOK 27/09 Q1017 NOSIG
 
LEGR - Granada Airport, Spain
Distance from station: OSO 62km
Actualización: 19/07/2018 11:30
Despejado
Despejado
 Viento del varies
Viento: varies 2 km/h
Temperatura: 27°C
Rocío: 9°C
Humedad: 32%
Barómetro: 1018 hPa
Resumen: Despejado
Visibility: greater than 10 km
2018/07/19 09:30 LEGR 190930Z VRB01KT CAVOK 27/09 Q1018
LEMG - Malaga (civ/Mil), Spain
Distance from station: OSO 227km
Actualización: 19/07/2018 11:30
Despejado
Despejado
 Viento del O
Viento: O 6 km/h
Temperatura: 28°C
Indice Calor: 28°C
Rocío: 16°C
Humedad: 48%
Barómetro: 1015 hPa
Resumen: Despejado
Visibility: greater than 10 km
2018/07/19 09:30 LEMG 190930Z 26003KT 160V310 CAVOK 28/16 Q1015 BECMG 13006KT
 
LEZL - Sevilla (civ/Mil, Spain
Distance from station: S 318km
Actualización: 19/07/2018 11:30
Despejado
Despejado
 Viento del SO
Viento: SO 4 km/h
Temperatura: 25°C
Rocío: 15°C
Humedad: 54%
Barómetro: 1016 hPa
Resumen: Despejado
Visibility: greater than 10 km
2018/07/19 09:30 LEZL 190930Z 22002KT CAVOK 25/15 Q1016 NOSIG
LEVT - Vitoria, Spain
Distance from station: NO 226km
Actualización: 19/07/2018 11:30
Muy nuboso
Muy nuboso
 Viento del ENE
Viento: ENE 7 km/h
Temperatura: 23°C
Rocío: 16°C
Humedad: 65%
Barómetro: 1018 hPa
Clouds: Muy nuboso
Visibility: 10 km
Cloud details: Muy nuboso 762 m
2018/07/19 09:30 LEVT 190930Z 06004KT 330V110 9999 BKN025 23/16 Q1018
 
LEBB - Bilbao/Sondica, Spain
Distance from station: NNO 235km
Actualización: 19/07/2018 11:30
Muy nuboso
Muy nuboso
 Viento del NNO
Viento: NNO 7 km/h
Temperatura: 24°C
Rocío: 20°C
Humedad: 78%
Barómetro: 1016 hPa
Clouds: Muy nuboso
Visibility: 10 km
Cloud details: Few Clouds 457 m
Parcialmente nuboso 701 m
Muy nuboso 1280 m
2018/07/19 09:30 LEBB 190930Z 34004KT 320V020 9999 FEW015 SCT023 BKN042 24/20 Q1016 NOSIG
LESO - San Sebastian/Fu, Spain
Distance from station: N 231km
Actualización: 19/07/2018 11:30
Muy nuboso
Muy nuboso
 Viento del NO
Viento: NO 6 km/h
Temperatura: 25°C
Rocío: 20°C
Humedad: 74%
Barómetro: 1016 hPa
Clouds: Muy nuboso
Visibility: 10 km
Cloud details: Parcialmente nuboso 640 m
Muy nuboso 914 m
2018/07/19 09:30 LESO 190930Z 31003KT 260V350 9999 SCT021 BKN030 25/20 Q1016
 
LEVD - Valladolid(Mil/C, Spain
Distance from station: ONO 239km
Actualización: 19/07/2018 11:30
Despejado
Despejado
 Viento del OSO
Viento: OSO 11 km/h
Temperatura: 23°C
Rocío: 15°C
Humedad: 61%
Barómetro: 1018 hPa
Resumen: Despejado
Visibility: greater than 10 km
2018/07/19 09:30 LEVD 190930Z 24006KT 200V290 CAVOK 23/15 Q1018
LESA - Salamanca (civ/M, Spain
Distance from station: ONO 349km
Actualización: 19/07/2018 11:30
Despejado
Despejado
 Viento del OSO
Viento: OSO 15 km/h
Temperatura: 24°C
Rocío: 8°C
Humedad: 36%
Barómetro: 1018 hPa
Resumen: Despejado
Visibility: greater than 10 km
2018/07/19 09:30 LESA 190930Z 25008KT 170V310 CAVOK 24/08 Q1018
 
LEXJ - Santander/Paraya, Spain
Distance from station: NNO 247km
Actualización: 19/07/2018 11:30
Muy nuboso
Muy nuboso
 Viento del ENE
Viento: ENE 13 km/h
Temperatura: 24°C
Rocío: 19°C
Humedad: 74%
Barómetro: 1016 hPa
Clouds: Muy nuboso
Visibility: 10 km
Cloud details: Parcialmente nuboso 762 m
Muy nuboso 1615 m
2018/07/19 09:30 LEXJ 190930Z 07007KT 030V100 9999 SCT025 BKN053 24/19 Q1016
LEAS - Asturias/Aviles, Spain
Distance from station: NO 214km
Actualización: 19/07/2018 11:46
Light drizzle, Cubierto
Light drizzle, Cubierto
 Viento del varies
Viento: varies 4 km/h
Temperatura: 18°C
Rocío: 17°C
Humedad: 94%
Barómetro: 1019 hPa
Resumen: Light Drizzle
Clouds: Cubierto
Visibility: 4 km
Cloud details: Few Clouds 152 m
Muy nuboso 457 m
Cubierto 671 m
2018/07/19 09:46 LEAS 190946Z VRB02KT 4000 -DZ FEW005 BKN015 OVC022 18/17 Q1019 NOSIG
 
LECO - La Coruna/Alvedr, Spain
Distance from station: ONO 222km
Actualización: 19/07/2018 11:30
Muy nuboso
Muy nuboso
 Viento del NE
Viento: NE 13 km/h
Temperatura: 19°C
Rocío: 14°C
Humedad: 73%
Barómetro: 1018 hPa
Clouds: Muy nuboso
Visibility: 10 km
Cloud details: Muy nuboso 1280 m
2018/07/19 09:30 LECO 190930Z 04007KT 010V080 9999 BKN042 19/14 Q1018 NOSIG
LEVX - Vigo/Peinador, Spain
Distance from station: O 214km
Actualización: 19/07/2018 11:30
Patches of fog, Muy nuboso
Patches of fog, Muy nuboso
 Viento del calm
Viento: Calma
Temperatura: 18°C
Rocío: 18°C
Humedad: 100%
Barómetro: 1018 hPa
Resumen: Patches of Fog
Clouds: Muy nuboso
Visibility: 1 km
Cloud details: Muy nuboso 91 m
Muy nuboso 274 m
2018/07/19 09:30 LEVX 190930Z 00000KT 1000 R19/1400D R01/1400N BCFG BKN003 BKN009 18/18 Q1018 BECMG 3000 SCT003